430  
UXUS97 KREV 241345  
SRGREV  
 
SOARING FORECAST  
NATIONAL WEATHER SERVICE - RENO NV  
700 AM PDT TUE APR 24 2018  
 
THIS SOARING FORECAST IS FOR THE EASTERN SIERRA AND WESTERN NEVADA  
WITH SPECIFIC INDICES FOR THE GREATER RENO AREA.  
 
THIS FORECAST IS PREPARED DAILY BY 700 AM AND IS NOT UPDATED.  
 
FOR CURRENT FLIGHT CONDITIONS...FORECASTS...AND ADVISORIES...ACCESS  
YOUR LOCAL BRIEFING OUTLET OR FLIGHT SERVICE STATION.  
 
*******************************************************************  
FORECASTED LOCAL INDICES FOR RENO: TODAY YESTERDAY  
FORECASTED MAX TEMP AT RENO (DEG F)..... 77 74  
FORECASTED TRIGGER TEMPERATURE (DEG F).. 61 59  
EXCEEDED YESTERDAY BY 1055 AM PDT  
FORECASTED MAXIMUM ALTITUDE (FT MSL).... 14200 14000  
FORECASTED SOARING INDEX (FPM).......... 696 690  
FORECASTED K-INDEX.........VALID 18Z.... 6 17  
FORECASTED K-INDEX.........VALID 00Z.... 23 27  
FORECASTED LIFTED INDEX....VALID 18Z.... 8 2  
FORECASTED LIFTED INDEX....VALID 00Z.... 2 4  
 
AFTERNOON WINDS ALOFT FORECAST MSL (FT)  
WIND/TEMP  
9000 0915/+07  
10000 0814/+05  
12000 1612/+01  
14000 2013/-03  
16000 2114/-07  
18000 2216/-12  
24000 2316/-26  
30000 2116/-41  
34000 2218/-51  
39000 2426/-62  
 
SLIDE MOUNTAIN DATA:  
DATE TIME TEMP DEWPT RH WIND (MPH)  
(F) (F) | DIR SPEED GUST  
2018-04-24 05:20 33 17 38 | 082 16 18  
2018-04-24 05:00 33 18 39 | 084 17 20  
2018-04-24 04:50 33 18 39 | 083 18 21  
2018-04-24 04:30 33 18 39 | 081 17 20  
 
SIERRA CREST 8700 FT DATA:  
DATE TIME TEMP RH WIND  
DIR SPEED GUST  
2018-04-24 0600 38 39 044 23 29  
2018-04-24 0545 38 39 049 21 30  
2018-04-24 0530 38 38 054 19 22  
2018-04-24 0515 38 38 058 18 24  
 
RENO TAF FORECAST:  
KRNO 241120Z 2412/2512 VRB04KT P6SM SKC  
FM241700 10006KT P6SM SCT250  
FM250400 VRB03KT P6SM SCT200  
 
CARSON CITY TAF FORECAST:  
KCXP 241120Z 2412/2512 05004KT P6SM SKC  
FM241800 06010G16KT P6SM FEW070 SCT250  
FM250200 06006KT P6SM SCT200  
 
OUTLOOK FOR THE RENO-CARSON CITY-MINDEN AREA:   
WEDNESDAY
 
PARTLY CLOUDY. HIGHS 77 TO 82. LIGHT WINDS.  
 
SUNRISE AND SUNSET  
APRIL 24 2018.........SUNRISE 609 AM PDT SUNSET 746 PM PDT  
APRIL 25 2018.........SUNRISE 608 AM PDT SUNSET 747 PM PDT  
 
CLICK HERE TO GO TO PREVIOUS BULLETINS.

The Nexlab NV Page
The Nexlab CA Page Main Text Page